createdAt,value
2017-08-25T00:01:08.422Z,91.20
2017-08-25T00:03:35.882Z,91.30
2017-08-25T00:06:03.366Z,91.20
2017-08-25T00:08:30.836Z,91.30
2017-08-25T00:10:58.319Z,91.30
2017-08-25T00:13:25.786Z,91.60
2017-08-25T00:15:53.291Z,91.60
2017-08-25T00:18:20.844Z,91.90
2017-08-25T00:20:48.358Z,91.80
2017-08-25T00:23:15.825Z,91.70
2017-08-25T00:25:43.297Z,92.10
2017-08-25T00:28:11.487Z,92.00
2017-08-25T00:30:38.961Z,92.40
2017-08-25T00:33:06.456Z,92.70
2017-08-25T00:35:33.927Z,92.60
2017-08-25T00:38:01.412Z,92.20
2017-08-25T00:40:28.874Z,92.10
2017-08-25T00:42:56.362Z,92.20
2017-08-25T00:45:23.825Z,92.70
2017-08-25T00:47:51.312Z,92.60
2017-08-25T00:50:18.767Z,92.50
2017-08-25T00:52:46.258Z,92.40
2017-08-25T00:55:13.716Z,92.20
2017-08-25T00:57:42.094Z,92.10
2017-08-25T01:00:13.445Z,92.20
2017-08-25T01:02:40.922Z,92.20
2017-08-25T01:05:08.449Z,92.10
2017-08-25T01:07:35.921Z,92.10
2017-08-25T01:10:03.367Z,92.10
2017-08-25T01:12:30.847Z,92.10
2017-08-25T01:14:58.345Z,92.10
2017-08-25T01:17:25.828Z,92.10
2017-08-25T01:19:53.282Z,92.30
2017-08-25T01:22:20.780Z,92.50
2017-08-25T01:24:48.257Z,92.80
2017-08-25T01:27:15.743Z,93.00
2017-08-25T01:29:43.230Z,93.20
2017-08-25T01:32:11.465Z,93.60
2017-08-25T01:34:38.968Z,93.60
2017-08-25T01:37:06.445Z,93.80
2017-08-25T01:39:33.921Z,93.80
2017-08-25T01:42:01.429Z,94.00
2017-08-25T01:44:29.648Z,93.80
2017-08-25T01:46:57.738Z,93.80
2017-08-25T01:49:25.214Z,93.70
2017-08-25T01:51:53.553Z,93.60
2017-08-25T01:54:21.013Z,93.50
2017-08-25T01:56:48.569Z,93.60
2017-08-25T01:59:16.038Z,93.60
2017-08-25T02:01:43.514Z,93.80
2017-08-25T02:04:10.994Z,93.80
2017-08-25T02:06:38.491Z,93.80
2017-08-25T02:09:05.962Z,94.00
2017-08-25T02:11:33.455Z,93.90
2017-08-25T02:14:00.947Z,94.20
2017-08-25T02:16:28.454Z,93.80
2017-08-25T02:18:55.966Z,93.70
2017-08-25T02:21:23.452Z,94.00
2017-08-25T02:23:50.911Z,93.90
2017-08-25T02:26:18.448Z,93.90
2017-08-25T02:28:45.944Z,93.90
2017-08-25T02:31:13.431Z,93.90
2017-08-25T02:33:40.898Z,94.00
2017-08-25T02:36:08.404Z,94.00
2017-08-25T02:38:35.863Z,94.40
2017-08-25T02:41:03.333Z,94.00
2017-08-25T02:43:30.804Z,93.90
2017-08-25T02:45:58.292Z,94.00
2017-08-25T02:48:25.791Z,94.10
2017-08-25T02:50:53.283Z,94.40
2017-08-25T02:53:21.665Z,95.30
2017-08-25T02:55:49.131Z,95.30
2017-08-25T02:58:16.614Z,95.10
2017-08-25T03:00:44.087Z,95.10
2017-08-25T03:03:11.658Z,94.90
2017-08-25T03:05:39.146Z,95.00
2017-08-25T03:08:06.611Z,95.30
2017-08-25T03:10:34.092Z,95.20
2017-08-25T03:13:02.521Z,95.20
2017-08-25T03:15:33.941Z,95.10
2017-08-25T03:18:01.404Z,95.30
2017-08-25T03:20:28.866Z,94.90
2017-08-25T03:22:57.261Z,94.90
2017-08-25T03:25:24.699Z,94.80
2017-08-25T03:27:52.201Z,94.90
2017-08-25T03:30:19.736Z,95.00
2017-08-25T03:32:47.227Z,94.90
2017-08-25T03:35:14.703Z,94.90
2017-08-25T03:37:42.912Z,94.80
2017-08-25T03:40:10.401Z,94.80
2017-08-25T03:42:37.906Z,94.90
2017-08-25T03:45:05.373Z,94.80
2017-08-25T03:47:32.836Z,94.50
2017-08-25T03:50:00.319Z,94.50
2017-08-25T03:52:27.843Z,94.40
2017-08-25T03:54:55.309Z,94.60
2017-08-25T03:57:23.546Z,94.50
2017-08-25T03:59:51.037Z,94.50
2017-08-25T04:02:18.509Z,94.70
2017-08-25T04:04:46.053Z,94.60
2017-08-25T04:07:13.503Z,94.40
2017-08-25T04:09:41.759Z,94.50
2017-08-25T04:12:09.227Z,94.50
2017-08-25T04:14:36.728Z,94.50
2017-08-25T04:17:04.195Z,94.40
2017-08-25T04:19:31.741Z,94.60
2017-08-25T04:21:59.242Z,94.60
2017-08-25T04:24:26.728Z,94.70
2017-08-25T04:26:54.211Z,95.10
2017-08-25T04:29:21.698Z,94.90
2017-08-25T04:31:49.189Z,94.90
2017-08-25T04:34:16.659Z,94.90
2017-08-25T04:36:44.152Z,94.90
2017-08-25T04:39:11.621Z,94.90
2017-08-25T04:41:39.099Z,94.70
2017-08-25T04:44:06.596Z,94.80
2017-08-25T04:46:34.091Z,94.90
2017-08-25T04:49:01.610Z,95.40
2017-08-25T04:51:29.078Z,95.20
2017-08-25T04:53:56.582Z,95.00
2017-08-25T04:56:24.038Z,95.10
2017-08-25T04:58:52.109Z,95.00
2017-08-25T05:01:19.625Z,94.60
2017-08-25T05:03:47.753Z,94.60
2017-08-25T05:06:15.246Z,94.50
2017-08-25T05:08:42.718Z,94.60
2017-08-25T05:11:10.215Z,94.40
2017-08-25T05:13:37.686Z,94.20
2017-08-25T05:16:05.225Z,94.20
2017-08-25T05:18:33.513Z,94.50
2017-08-25T05:21:00.987Z,94.30
2017-08-25T05:23:28.474Z,94.50
2017-08-25T05:25:55.948Z,94.80
2017-08-25T05:28:23.443Z,94.80
2017-08-25T05:30:50.929Z,94.60
2017-08-25T05:33:18.446Z,94.20
2017-08-25T05:35:46.019Z,94.50
2017-08-25T05:38:13.505Z,94.10
2017-08-25T05:40:41.736Z,93.80
2017-08-25T05:43:09.164Z,94.10
2017-08-25T05:45:36.657Z,94.40
2017-08-25T05:48:04.203Z,94.60
2017-08-25T05:50:31.685Z,95.10
2017-08-25T05:52:59.163Z,95.00
2017-08-25T05:55:26.663Z,94.90
2017-08-25T05:57:54.192Z,94.50
2017-08-25T06:00:21.651Z,94.30
2017-08-25T06:02:49.149Z,94.30
2017-08-25T06:05:16.617Z,93.80
2017-08-25T06:07:44.172Z,94.10
2017-08-25T06:10:11.641Z,93.80
2017-08-25T06:12:39.141Z,93.40
2017-08-25T06:15:06.651Z,94.00
2017-08-25T06:17:34.162Z,92.80
2017-08-25T06:20:01.648Z,92.20
2017-08-25T06:22:29.178Z,91.40
2017-08-25T06:24:56.763Z,90.60
2017-08-25T06:27:24.261Z,90.40
2017-08-25T06:29:51.767Z,90.40
2017-08-25T06:32:19.237Z,89.70
2017-08-25T06:34:46.778Z,87.10
2017-08-25T06:37:14.242Z,84.90
2017-08-25T06:39:41.776Z,84.50
2017-08-25T06:42:09.271Z,81.70
2017-08-25T06:44:36.736Z,82.60
2017-08-25T06:47:04.238Z,84.30
2017-08-25T06:49:31.798Z,84.90
2017-08-25T06:51:59.332Z,85.20
2017-08-25T06:54:26.808Z,86.00
2017-08-25T06:56:54.307Z,85.00
2017-08-25T06:59:21.796Z,85.10
2017-08-25T07:01:49.261Z,84.50
2017-08-25T07:04:16.750Z,83.30
2017-08-25T07:06:44.244Z,81.70
2017-08-25T07:09:11.701Z,78.60
2017-08-25T07:11:39.178Z,77.40
2017-08-25T07:14:06.696Z,75.90
2017-08-25T07:16:34.134Z,71.90
2017-08-25T07:19:01.680Z,70.40
2017-08-25T07:21:29.150Z,67.60
2017-08-25T07:23:56.635Z,67.80
2017-08-25T07:26:24.119Z,70.20
2017-08-25T07:28:51.565Z,71.60
2017-08-25T07:31:19.098Z,71.20
2017-08-25T07:33:46.592Z,70.90
2017-08-25T07:36:14.090Z,71.50
2017-08-25T07:38:41.578Z,71.20
2017-08-25T07:41:09.065Z,72.50
2017-08-25T07:43:37.503Z,68.80
2017-08-25T07:46:04.955Z,68.40
2017-08-25T07:48:32.442Z,69.70
2017-08-25T07:51:00.261Z,65.40
2017-08-25T07:53:28.012Z,63.40
2017-08-25T07:55:55.639Z,63.10
2017-08-25T07:58:23.121Z,64.40
2017-08-25T08:00:50.660Z,66.60
2017-08-25T08:03:18.105Z,66.40
2017-08-25T08:05:45.646Z,66.40
2017-08-25T08:08:13.130Z,63.50
2017-08-25T08:10:40.647Z,60.70
2017-08-25T08:13:08.128Z,58.10
2017-08-25T08:15:35.651Z,55.20
2017-08-25T08:18:03.127Z,53.60
2017-08-25T08:20:30.578Z,53.00
2017-08-25T08:22:58.109Z,51.00
2017-08-25T08:25:25.574Z,50.50
2017-08-25T08:27:53.076Z,51.70
2017-08-25T08:30:20.563Z,51.30
2017-08-25T08:32:48.089Z,50.00
2017-08-25T08:35:15.602Z,49.60
2017-08-25T08:37:43.087Z,47.80
2017-08-25T08:40:10.574Z,47.70
2017-08-25T08:42:38.058Z,46.30
2017-08-25T08:45:05.530Z,45.80
2017-08-25T08:47:33.013Z,45.40
2017-08-25T08:50:00.512Z,44.90
2017-08-25T08:52:28.083Z,44.30
2017-08-25T08:54:55.549Z,44.40
2017-08-25T08:57:23.039Z,43.90
2017-08-25T08:59:50.504Z,43.80
2017-08-25T09:02:18.049Z,45.00
2017-08-25T09:04:45.542Z,43.20
2017-08-25T09:07:13.037Z,42.10
2017-08-25T09:09:40.553Z,42.70
2017-08-25T09:12:08.054Z,43.10
2017-08-25T09:14:35.560Z,47.00
2017-08-25T09:17:03.021Z,46.20
2017-08-25T09:19:30.476Z,45.90
2017-08-25T09:21:58.008Z,46.60
2017-08-25T09:24:25.494Z,47.80
2017-08-25T09:26:52.981Z,47.30
2017-08-25T09:29:20.435Z,47.50
2017-08-25T09:31:47.919Z,46.50
2017-08-25T09:34:15.407Z,45.20
2017-08-25T09:36:42.877Z,45.30
2017-08-25T09:39:10.360Z,47.00
2017-08-25T09:41:37.843Z,47.90
2017-08-25T09:44:05.362Z,49.00
2017-08-25T09:46:32.835Z,51.40
2017-08-25T09:49:00.287Z,51.20
2017-08-25T09:51:27.776Z,51.20
2017-08-25T09:53:55.751Z,51.30
2017-08-25T09:56:23.204Z,49.80
2017-08-25T09:58:50.725Z,49.20
2017-08-25T10:01:18.234Z,49.60
2017-08-25T10:03:46.507Z,48.80
2017-08-25T10:06:13.981Z,48.80
2017-08-25T10:08:41.480Z,48.20
2017-08-25T10:11:08.941Z,43.80
2017-08-25T10:13:37.183Z,41.50
2017-08-25T10:16:04.834Z,43.90
2017-08-25T10:18:32.318Z,45.80
2017-08-25T10:20:59.792Z,46.20
2017-08-25T10:23:27.269Z,44.20
2017-08-25T10:25:55.589Z,43.60
2017-08-25T10:28:23.099Z,44.00
2017-08-25T10:30:50.586Z,44.60
2017-08-25T10:33:29.862Z,45.00
2017-08-25T10:36:09.277Z,43.50
2017-08-25T10:38:48.523Z,43.50
2017-08-25T10:41:27.957Z,45.00
2017-08-25T10:44:07.239Z,45.00
2017-08-25T10:46:34.697Z,44.10
2017-08-25T10:49:02.180Z,43.10
2017-08-25T10:51:29.665Z,41.90
2017-08-25T10:53:57.134Z,41.00
2017-08-25T10:56:24.594Z,40.10
2017-08-25T10:58:52.113Z,39.40
2017-08-25T11:01:19.558Z,39.90
2017-08-25T11:03:47.015Z,40.00
2017-08-25T11:06:15.273Z,42.00
2017-08-25T11:08:42.739Z,42.00
2017-08-25T11:11:10.257Z,41.80
2017-08-25T11:13:37.722Z,42.00
2017-08-25T11:16:05.183Z,42.10
2017-08-25T11:18:32.660Z,42.50
2017-08-25T11:21:00.119Z,42.90
2017-08-25T11:23:27.703Z,43.00
2017-08-25T11:25:55.142Z,42.60
2017-08-25T11:28:22.649Z,43.60
2017-08-25T11:30:50.100Z,45.40
2017-08-25T11:33:21.754Z,45.30
2017-08-25T11:35:49.228Z,44.80
2017-08-25T11:38:16.694Z,45.30
2017-08-25T11:40:44.188Z,45.20
2017-08-25T11:43:11.659Z,46.90
2017-08-25T11:45:39.151Z,46.50
2017-08-25T11:48:06.712Z,46.30
2017-08-25T11:50:34.225Z,45.30
2017-08-25T11:53:01.702Z,45.60
2017-08-25T11:55:29.178Z,46.10
2017-08-25T11:57:56.670Z,45.60
2017-08-25T12:00:24.154Z,45.10
2017-08-25T12:02:51.758Z,44.30
2017-08-25T12:05:19.255Z,44.80
2017-08-25T12:07:46.726Z,45.90
2017-08-25T12:10:14.234Z,45.40
2017-08-25T12:12:41.827Z,44.90
2017-08-25T12:15:09.320Z,44.60
2017-08-25T12:17:37.554Z,45.80
2017-08-25T12:20:05.051Z,45.70
2017-08-25T12:22:32.539Z,45.10
2017-08-25T12:25:00.176Z,44.80
2017-08-25T12:27:27.651Z,46.10
2017-08-25T12:29:55.117Z,46.30
2017-08-25T12:32:22.621Z,45.00
2017-08-25T12:34:50.251Z,45.40
2017-08-25T12:37:17.699Z,45.90
2017-08-25T12:39:45.177Z,45.20
2017-08-25T12:42:12.707Z,46.50
2017-08-25T12:44:40.263Z,46.50
2017-08-25T12:47:08.546Z,44.50
2017-08-25T12:49:36.010Z,44.50
2017-08-25T12:52:03.472Z,44.10
2017-08-25T12:54:30.977Z,43.70
2017-08-25T12:56:58.448Z,43.90
2017-08-25T12:59:25.916Z,43.00
2017-08-25T13:01:53.384Z,42.90
2017-08-25T13:04:20.878Z,43.40
2017-08-25T13:06:48.356Z,43.90
2017-08-25T13:09:15.837Z,43.80
2017-08-25T13:11:43.307Z,44.00
2017-08-25T13:14:10.769Z,44.20
2017-08-25T13:16:38.276Z,43.90
2017-08-25T13:19:05.879Z,45.10
2017-08-25T13:21:33.394Z,45.20
2017-08-25T13:24:00.857Z,44.30
2017-08-25T13:26:28.329Z,43.50
2017-08-25T13:28:55.884Z,41.80
2017-08-25T13:31:23.345Z,41.40
2017-08-25T13:33:50.838Z,43.00
2017-08-25T13:36:18.320Z,44.50
2017-08-25T13:38:45.796Z,44.40
2017-08-25T13:41:13.267Z,42.80
2017-08-25T13:43:40.759Z,42.50
2017-08-25T13:46:08.240Z,42.70
2017-08-25T13:48:35.739Z,44.00
2017-08-25T13:51:03.193Z,44.50
2017-08-25T13:53:30.693Z,45.50
2017-08-25T13:55:58.143Z,46.10
2017-08-25T13:58:25.622Z,46.90
2017-08-25T14:00:53.098Z,47.70
2017-08-25T14:03:20.568Z,47.30
2017-08-25T14:05:48.106Z,46.60
2017-08-25T14:08:15.555Z,45.70
2017-08-25T14:10:43.051Z,44.50
2017-08-25T14:13:10.534Z,46.50
2017-08-25T14:15:38.134Z,48.40
2017-08-25T14:18:05.581Z,49.10
2017-08-25T14:20:33.044Z,49.70
2017-08-25T14:23:00.524Z,50.40
2017-08-25T14:25:28.092Z,51.00
2017-08-25T14:27:55.639Z,51.20
2017-08-25T14:30:23.100Z,50.50
2017-08-25T14:32:50.596Z,51.00
2017-08-25T14:35:18.118Z,50.50
2017-08-25T14:37:45.607Z,51.40
2017-08-25T14:40:13.085Z,51.30
2017-08-25T14:42:40.821Z,51.30
2017-08-25T14:45:08.318Z,51.20
2017-08-25T14:47:35.788Z,51.40
2017-08-25T14:50:03.325Z,51.70
2017-08-25T14:52:30.826Z,51.40
2017-08-25T14:54:58.326Z,51.90
2017-08-25T14:57:25.810Z,52.70
2017-08-25T14:59:53.365Z,52.00
2017-08-25T15:02:20.860Z,52.50
2017-08-25T15:04:48.372Z,52.10
2017-08-25T15:07:15.846Z,50.70
2017-08-25T15:09:43.843Z,49.60
2017-08-25T15:12:11.336Z,49.00
2017-08-25T15:14:38.824Z,48.70
2017-08-25T15:17:06.365Z,49.30
2017-08-25T15:19:33.864Z,49.60
2017-08-25T15:22:01.372Z,49.70
2017-08-25T15:24:28.887Z,48.90
2017-08-25T15:26:56.397Z,48.20
2017-08-25T15:29:24.027Z,49.00
2017-08-25T15:31:51.543Z,49.60
2017-08-25T15:34:18.995Z,49.90
2017-08-25T15:36:46.522Z,51.00
2017-08-25T15:39:14.039Z,51.40
2017-08-25T15:41:41.533Z,50.20
2017-08-25T15:44:09.030Z,49.50
2017-08-25T15:46:37.289Z,51.70
2017-08-25T15:49:04.754Z,51.70
2017-08-25T15:51:32.347Z,52.10
2017-08-25T15:53:59.826Z,52.60
2017-08-25T15:56:27.355Z,52.60
2017-08-25T15:58:54.833Z,52.90
2017-08-25T16:01:22.327Z,54.20
2017-08-25T16:03:49.837Z,54.30
2017-08-25T16:06:17.319Z,55.00
2017-08-25T16:08:44.845Z,55.40
2017-08-25T16:11:12.351Z,55.90
2017-08-25T16:13:39.811Z,56.50
2017-08-25T16:16:11.224Z,57.00
2017-08-25T16:18:38.713Z,57.90
2017-08-25T16:21:06.205Z,58.50
2017-08-25T16:23:33.762Z,58.80
2017-08-25T16:26:01.293Z,59.00
2017-08-25T16:28:29.415Z,58.70
2017-08-25T16:30:57.705Z,60.10
2017-08-25T16:33:25.199Z,60.10
2017-08-25T16:35:52.749Z,64.80
2017-08-25T16:38:20.374Z,78.00
2017-08-25T16:40:47.867Z,89.60
2017-08-25T16:43:15.414Z,91.60
2017-08-25T16:45:42.974Z,94.40
2017-08-25T16:48:10.448Z,95.30
2017-08-25T16:50:37.925Z,93.90
2017-08-25T16:53:05.451Z,96.20
2017-08-25T16:55:32.980Z,97.60
2017-08-25T16:58:00.653Z,97.50
2017-08-25T17:00:28.360Z,97.50
2017-08-25T17:02:55.867Z,96.10
2017-08-25T17:05:23.381Z,96.30
2017-08-25T17:07:50.870Z,96.30
2017-08-25T17:10:18.367Z,98.20
2017-08-25T17:12:46.142Z,95.60
2017-08-25T17:15:13.611Z,98.10
2017-08-25T17:17:41.126Z,99.40
2017-08-25T17:20:08.573Z,99.90
2017-08-25T17:22:36.077Z,99.90
2017-08-25T17:25:03.551Z,99.90
2017-08-25T17:27:31.867Z,99.90
2017-08-25T17:30:00.141Z,99.90
2017-08-25T17:32:27.636Z,99.90
2017-08-25T17:34:55.101Z,99.90
2017-08-25T17:37:22.563Z,99.90
2017-08-25T17:39:51.097Z,99.90
2017-08-25T17:42:24.759Z,99.90
2017-08-25T17:44:52.533Z,99.90
2017-08-25T17:47:21.326Z,99.90
2017-08-25T17:49:50.132Z,99.90
2017-08-25T17:52:18.098Z,99.90
2017-08-25T17:54:45.585Z,99.90
2017-08-25T17:57:13.291Z,99.90
2017-08-25T17:59:40.997Z,99.90
2017-08-25T18:02:08.612Z,99.90
2017-08-25T18:04:37.113Z,99.90
2017-08-25T18:07:05.773Z,99.90
2017-08-25T18:09:36.445Z,99.90
2017-08-25T18:12:07.923Z,99.90
2017-08-25T18:14:35.512Z,99.90
2017-08-25T18:17:03.065Z,99.90
2017-08-25T18:19:31.540Z,99.90
2017-08-25T18:21:59.413Z,99.90
2017-08-25T18:24:26.963Z,99.90
2017-08-25T18:26:54.585Z,99.90
2017-08-25T18:29:22.182Z,99.90
2017-08-25T18:31:49.816Z,99.90
2017-08-25T18:34:17.327Z,99.90
2017-08-25T18:36:44.825Z,99.90
2017-08-25T18:39:12.363Z,99.90
2017-08-25T18:41:39.891Z,99.90
2017-08-25T18:44:07.412Z,99.90
2017-08-25T18:46:34.946Z,99.90
2017-08-25T18:49:02.427Z,99.90
2017-08-25T18:51:30.011Z,99.90
2017-08-25T18:53:57.506Z,99.90
2017-08-25T18:56:25.038Z,99.90
2017-08-25T18:58:52.569Z,99.90
2017-08-25T19:01:20.061Z,99.90
2017-08-25T19:03:47.642Z,99.90
2017-08-25T19:06:15.188Z,99.90
2017-08-25T19:08:42.765Z,99.90
2017-08-25T19:11:10.262Z,99.90
2017-08-25T19:13:37.816Z,99.90
2017-08-25T19:16:05.299Z,99.90
2017-08-25T19:18:32.845Z,99.90
2017-08-25T19:21:00.366Z,99.90
2017-08-25T19:23:27.852Z,99.90
2017-08-25T19:25:55.419Z,99.90
2017-08-25T19:28:23.594Z,99.90
2017-08-25T19:30:51.153Z,99.90
2017-08-25T19:33:18.610Z,99.90
2017-08-25T19:35:46.106Z,99.90
2017-08-25T19:38:13.594Z,99.90
2017-08-25T19:40:41.099Z,99.90
2017-08-25T19:43:08.652Z,99.90
2017-08-25T19:45:36.156Z,99.90
2017-08-25T19:48:03.615Z,99.90
2017-08-25T19:50:31.202Z,99.90
2017-08-25T19:52:58.809Z,99.90
2017-08-25T19:55:26.370Z,99.90
2017-08-25T19:57:53.900Z,99.90
2017-08-25T20:00:21.446Z,99.90
2017-08-25T20:02:48.913Z,99.90
2017-08-25T20:05:16.395Z,99.90
2017-08-25T20:07:43.908Z,99.90
2017-08-25T20:10:11.400Z,99.90
2017-08-25T20:12:38.883Z,99.90
2017-08-25T20:15:07.193Z,99.90
2017-08-25T20:17:34.789Z,99.90
2017-08-25T20:20:02.342Z,99.90
2017-08-25T20:22:29.819Z,99.90
2017-08-25T20:24:57.488Z,99.90
2017-08-25T20:27:25.016Z,99.90
2017-08-25T20:29:52.526Z,99.90
2017-08-25T20:32:20.018Z,99.90
2017-08-25T20:34:47.540Z,99.90
2017-08-25T20:37:15.056Z,99.90
2017-08-25T20:39:42.566Z,99.90
2017-08-25T20:42:10.093Z,99.90
2017-08-25T20:44:37.614Z,99.90
2017-08-25T20:47:05.158Z,99.90
2017-08-25T20:49:32.640Z,99.90
2017-08-25T20:52:00.157Z,99.90
2017-08-25T20:54:27.672Z,99.90
2017-08-25T20:56:55.206Z,99.90
2017-08-25T20:59:22.729Z,99.90
2017-08-25T21:01:50.307Z,99.90
2017-08-25T21:04:17.849Z,99.90
2017-08-25T21:06:45.374Z,99.90
2017-08-25T21:09:12.955Z,99.90
2017-08-25T21:11:40.465Z,99.90
2017-08-25T21:14:08.002Z,99.90
2017-08-25T21:16:35.571Z,99.90
2017-08-25T21:19:03.028Z,99.90
2017-08-25T21:21:30.621Z,99.90
2017-08-25T21:23:58.206Z,99.90
2017-08-25T21:26:25.687Z,99.90
2017-08-25T21:28:53.235Z,99.90
2017-08-25T21:31:20.830Z,99.90
2017-08-25T21:33:48.365Z,99.90
2017-08-25T21:36:15.857Z,99.90
2017-08-25T21:38:43.420Z,99.90
2017-08-25T21:41:10.954Z,99.90
2017-08-25T21:43:38.560Z,99.90
2017-08-25T21:46:06.081Z,99.90
2017-08-25T21:48:33.664Z,99.90
2017-08-25T21:51:01.231Z,99.90
2017-08-25T21:53:28.720Z,99.90
2017-08-25T21:55:56.269Z,99.90
2017-08-25T21:58:23.827Z,99.90
2017-08-25T22:00:51.365Z,99.90
2017-08-25T22:03:18.929Z,99.90
2017-08-25T22:05:47.269Z,99.90
2017-08-25T22:08:14.804Z,99.90
2017-08-25T22:10:42.353Z,99.90
2017-08-25T22:13:09.989Z,99.90
2017-08-25T22:15:37.567Z,99.90
2017-08-25T22:18:05.178Z,99.90
2017-08-25T22:20:32.711Z,99.90
2017-08-25T22:23:00.240Z,99.90
2017-08-25T22:25:27.963Z,99.90
2017-08-25T22:27:55.517Z,99.90
2017-08-25T22:30:23.012Z,99.90
2017-08-25T22:32:50.573Z,99.90
2017-08-25T22:35:18.058Z,99.90
2017-08-25T22:37:45.559Z,99.90
2017-08-25T22:40:13.098Z,99.90
2017-08-25T22:42:44.416Z,99.90
2017-08-25T22:45:11.956Z,99.90
2017-08-25T22:47:39.510Z,99.90
2017-08-25T22:50:07.009Z,99.90
2017-08-25T22:52:34.540Z,99.90
2017-08-25T22:55:02.067Z,99.90
2017-08-25T22:57:29.545Z,99.90
2017-08-25T22:59:57.439Z,99.90
2017-08-25T23:02:24.975Z,99.90
2017-08-25T23:04:52.483Z,99.90
2017-08-25T23:07:20.041Z,99.90
2017-08-25T23:09:47.541Z,99.90
2017-08-25T23:12:15.088Z,99.90
2017-08-25T23:14:42.558Z,99.90
2017-08-25T23:17:10.062Z,99.90
2017-08-25T23:19:37.573Z,99.90
2017-08-25T23:22:05.070Z,99.90
2017-08-25T23:24:32.568Z,99.90
2017-08-25T23:27:00.097Z,99.90
2017-08-25T23:29:27.593Z,99.90
2017-08-25T23:31:55.102Z,99.90
2017-08-25T23:34:22.646Z,99.90
2017-08-25T23:36:50.133Z,99.90
2017-08-25T23:39:17.654Z,99.90
2017-08-25T23:41:45.148Z,99.90
2017-08-25T23:44:12.630Z,99.90
2017-08-25T23:46:40.110Z,99.90
2017-08-25T23:49:07.601Z,99.90
2017-08-25T23:51:35.081Z,99.90
2017-08-25T23:54:02.590Z,99.90
2017-08-25T23:56:30.058Z,99.90
2017-08-25T23:58:57.569Z,99.90
